sensor_id;sensor_type;location;lat;lon;timestamp;P1;durP1;ratioP1;P2;durP2;ratioP2
22565;SDS011;11449;51.330;19.378;2023-12-07T00:04:56;822.80;;;756.10;;
22565;SDS011;11449;51.330;19.378;2023-12-07T00:10:05;819.00;;;751.60;;
22565;SDS011;11449;51.330;19.378;2023-12-07T00:15:13;855.10;;;788.80;;
22565;SDS011;11449;51.330;19.378;2023-12-07T00:20:16;878.00;;;810.70;;
22565;SDS011;11449;51.330;19.378;2023-12-07T00:25:25;891.70;;;823.00;;
22565;SDS011;11449;51.330;19.378;2023-12-07T00:30:28;896.50;;;828.20;;
22565;SDS011;11449;51.330;19.378;2023-12-07T00:35:32;865.00;;;798.30;;
22565;SDS011;11449;51.330;19.378;2023-12-07T00:40:39;866.90;;;799.70;;
22565;SDS011;11449;51.330;19.378;2023-12-07T00:45:47;880.80;;;813.30;;
22565;SDS011;11449;51.330;19.378;2023-12-07T00:50:55;852.40;;;785.00;;
22565;SDS011;11449;51.330;19.378;2023-12-07T00:55:59;857.30;;;789.70;;
22565;SDS011;11449;51.330;19.378;2023-12-07T01:01:07;864.30;;;795.10;;
22565;SDS011;11449;51.330;19.378;2023-12-07T01:06:15;857.90;;;789.90;;
22565;SDS011;11449;51.330;19.378;2023-12-07T01:11:24;863.40;;;796.30;;
22565;SDS011;11449;51.330;19.378;2023-12-07T01:16:32;868.20;;;800.80;;
22565;SDS011;11449;51.330;19.378;2023-12-07T01:21:40;877.50;;;810.30;;
22565;SDS011;11449;51.330;19.378;2023-12-07T01:26:44;881.70;;;814.10;;
22565;SDS011;11449;51.330;19.378;2023-12-07T01:31:51;907.20;;;839.30;;
22565;SDS011;11449;51.330;19.378;2023-12-07T01:36:59;859.50;;;792.90;;
22565;SDS011;11449;51.330;19.378;2023-12-07T01:42:13;864.90;;;796.50;;
22565;SDS011;11449;51.330;19.378;2023-12-07T01:47:21;922.40;;;852.10;;
22565;SDS011;11449;51.330;19.378;2023-12-07T01:52:29;892.50;;;824.20;;
22565;SDS011;11449;51.330;19.378;2023-12-07T01:57:37;894.40;;;826.60;;
22565;SDS011;11449;51.330;19.378;2023-12-07T02:02:44;905.00;;;836.40;;
22565;SDS011;11449;51.330;19.378;2023-12-07T02:07:54;905.30;;;836.80;;
22565;SDS011;11449;51.330;19.378;2023-12-07T02:13:01;903.20;;;834.80;;
22565;SDS011;11449;51.330;19.378;2023-12-07T02:28:25;929.90;;;858.50;;
22565;SDS011;11449;51.330;19.378;2023-12-07T02:33:33;948.10;;;876.80;;
22565;SDS011;11449;51.330;19.378;2023-12-07T02:38:41;944.80;;;873.90;;
22565;SDS011;11449;51.330;19.378;2023-12-07T02:43:49;947.20;;;875.60;;
22565;SDS011;11449;51.330;19.378;2023-12-07T02:48:57;951.30;;;879.80;;
22565;SDS011;11449;51.330;19.378;2023-12-07T02:54:06;948.40;;;877.60;;
22565;SDS011;11449;51.330;19.378;2023-12-07T02:59:13;965.30;;;891.30;;
22565;SDS011;11449;51.330;19.378;2023-12-07T03:04:21;959.80;;;886.40;;
22565;SDS011;11449;51.330;19.378;2023-12-07T03:09:29;964.80;;;891.80;;
22565;SDS011;11449;51.330;19.378;2023-12-07T03:14:36;961.80;;;888.60;;
22565;SDS011;11449;51.330;19.378;2023-12-07T03:19:44;960.40;;;883.80;;
22565;SDS011;11449;51.330;19.378;2023-12-07T03:24:53;968.00;;;894.60;;
22565;SDS011;11449;51.330;19.378;2023-12-07T03:29:56;977.20;;;903.80;;
22565;SDS011;11449;51.330;19.378;2023-12-07T03:35:04;966.70;;;893.30;;
22565;SDS011;11449;51.330;19.378;2023-12-07T03:40:12;393.60;;;245.30;;
22565;SDS011;11449;51.330;19.378;2023-12-07T03:45:20;401.70;;;266.80;;
22565;SDS011;11449;51.330;19.378;2023-12-07T03:50:27;400.30;;;247.90;;
22565;SDS011;11449;51.330;19.378;2023-12-07T03:55:35;334.30;;;188.20;;
22565;SDS011;11449;51.330;19.378;2023-12-07T04:00:44;360.50;;;223.70;;
22565;SDS011;11449;51.330;19.378;2023-12-07T04:05:52;325.10;;;188.10;;
22565;SDS011;11449;51.330;19.378;2023-12-07T04:11:00;349.10;;;205.20;;
22565;SDS011;11449;51.330;19.378;2023-12-07T04:16:14;444.70;;;274.70;;
22565;SDS011;11449;51.330;19.378;2023-12-07T04:21:22;430.70;;;262.20;;
22565;SDS011;11449;51.330;19.378;2023-12-07T04:26:30;416.00;;;203.40;;
22565;SDS011;11449;51.330;19.378;2023-12-07T04:31:34;980.70;;;902.00;;
22565;SDS011;11449;51.330;19.378;2023-12-07T04:36:43;997.10;;;910.40;;
22565;SDS011;11449;51.330;19.378;2023-12-07T04:41:50;966.00;;;889.90;;
22565;SDS011;11449;51.330;19.378;2023-12-07T04:46:58;973.50;;;897.30;;
22565;SDS011;11449;51.330;19.378;2023-12-07T04:52:06;971.20;;;895.60;;
22565;SDS011;11449;51.330;19.378;2023-12-07T04:57:10;972.00;;;896.30;;
22565;SDS011;11449;51.330;19.378;2023-12-07T05:02:14;971.50;;;895.50;;
22565;SDS011;11449;51.330;19.378;2023-12-07T05:07:21;979.80;;;903.10;;
22565;SDS011;11449;51.330;19.378;2023-12-07T05:12:29;961.10;;;886.90;;
22565;SDS011;11449;51.330;19.378;2023-12-07T05:17:38;976.30;;;901.10;;
22565;SDS011;11449;51.330;19.378;2023-12-07T05:22:45;982.00;;;906.70;;
22565;SDS011;11449;51.330;19.378;2023-12-07T05:27:53;983.40;;;907.20;;
22565;SDS011;11449;51.330;19.378;2023-12-07T05:33:01;123.40;;;34.50;;
22565;SDS011;11449;51.330;19.378;2023-12-07T05:38:10;146.50;;;35.20;;
22565;SDS011;11449;51.330;19.378;2023-12-07T05:43:18;253.50;;;107.60;;
22565;SDS011;11449;51.330;19.378;2023-12-07T05:48:25;301.50;;;141.20;;
22565;SDS011;11449;51.330;19.378;2023-12-07T05:53:33;236.60;;;71.40;;
22565;SDS011;11449;51.330;19.378;2023-12-07T05:58:37;507.80;;;318.20;;
22565;SDS011;11449;51.330;19.378;2023-12-07T06:03:40;809.80;;;738.00;;
22565;SDS011;11449;51.330;19.378;2023-12-07T06:08:48;950.00;;;876.40;;
22565;SDS011;11449;51.330;19.378;2023-12-07T06:13:56;958.70;;;884.70;;
22565;SDS011;11449;51.330;19.378;2023-12-07T06:19:03;800.80;;;737.60;;
22565;SDS011;11449;51.330;19.378;2023-12-07T06:24:11;966.20;;;891.90;;
22565;SDS011;11449;51.330;19.378;2023-12-07T06:29:19;963.90;;;888.80;;
22565;SDS011;11449;51.330;19.378;2023-12-07T06:34:26;974.60;;;893.80;;
22565;SDS011;11449;51.330;19.378;2023-12-07T06:39:35;987.70;;;905.70;;
22565;SDS011;11449;51.330;19.378;2023-12-07T06:44:40;987.90;;;908.00;;
22565;SDS011;11449;51.330;19.378;2023-12-07T06:49:47;954.50;;;874.10;;
22565;SDS011;11449;51.330;19.378;2023-12-07T06:54:51;361.60;;;198.60;;
22565;SDS011;11449;51.330;19.378;2023-12-07T06:59:55;979.30;;;902.70;;
22565;SDS011;11449;51.330;19.378;2023-12-07T07:05:00;980.60;;;906.40;;
22565;SDS011;11449;51.330;19.378;2023-12-07T07:10:03;983.70;;;907.00;;
22565;SDS011;11449;51.330;19.378;2023-12-07T07:15:11;1027.10;;;945.30;;
22565;SDS011;11449;51.330;19.378;2023-12-07T07:20:15;989.90;;;912.30;;
22565;SDS011;11449;51.330;19.378;2023-12-07T07:25:18;986.10;;;911.70;;
22565;SDS011;11449;51.330;19.378;2023-12-07T07:30:27;1006.40;;;926.20;;
22565;SDS011;11449;51.330;19.378;2023-12-07T07:35:30;1002.50;;;921.70;;
22565;SDS011;11449;51.330;19.378;2023-12-07T07:40:34;1000.70;;;919.90;;
22565;SDS011;11449;51.330;19.378;2023-12-07T07:45:37;1028.70;;;941.40;;
22565;SDS011;11449;51.330;19.378;2023-12-07T07:50:45;1029.00;;;944.40;;
22565;SDS011;11449;51.330;19.378;2023-12-07T07:55:53;1001.80;;;922.40;;
22565;SDS011;11449;51.330;19.378;2023-12-07T08:01:01;999.60;;;921.00;;
22565;SDS011;11449;51.330;19.378;2023-12-07T08:06:09;1007.60;;;928.60;;
22565;SDS011;11449;51.330;19.378;2023-12-07T08:11:14;1009.60;;;930.00;;
22565;SDS011;11449;51.330;19.378;2023-12-07T08:16:22;1022.40;;;941.20;;
22565;SDS011;11449;51.330;19.378;2023-12-07T08:21:30;1037.10;;;953.20;;
22565;SDS011;11449;51.330;19.378;2023-12-07T08:26:33;1028.20;;;942.90;;
22565;SDS011;11449;51.330;19.378;2023-12-07T08:31:36;1013.60;;;930.80;;
22565;SDS011;11449;51.330;19.378;2023-12-07T08:36:44;1028.20;;;946.10;;
22565;SDS011;11449;51.330;19.378;2023-12-07T08:41:52;1018.50;;;939.10;;
22565;SDS011;11449;51.330;19.378;2023-12-07T08:47:00;1014.10;;;934.90;;
22565;SDS011;11449;51.330;19.378;2023-12-07T08:52:07;1003.70;;;926.60;;
22565;SDS011;11449;51.330;19.378;2023-12-07T08:57:17;1007.00;;;927.80;;
22565;SDS011;11449;51.330;19.378;2023-12-07T09:02:25;1009.20;;;930.90;;
22565;SDS011;11449;51.330;19.378;2023-12-07T09:07:33;1026.10;;;943.00;;
22565;SDS011;11449;51.330;19.378;2023-12-07T09:12:40;1028.70;;;943.50;;
22565;SDS011;11449;51.330;19.378;2023-12-07T09:17:48;1023.00;;;942.70;;
22565;SDS011;11449;51.330;19.378;2023-12-07T09:22:58;1015.40;;;936.20;;
22565;SDS011;11449;51.330;19.378;2023-12-07T09:28:06;1019.60;;;939.70;;
22565;SDS011;11449;51.330;19.378;2023-12-07T09:33:15;1024.50;;;945.40;;
22565;SDS011;11449;51.330;19.378;2023-12-07T09:38:24;1013.00;;;935.00;;
22565;SDS011;11449;51.330;19.378;2023-12-07T09:43:33;1024.50;;;942.60;;
22565;SDS011;11449;51.330;19.378;2023-12-07T09:48:41;1025.10;;;941.50;;
22565;SDS011;11449;51.330;19.378;2023-12-07T09:53:46;1021.00;;;940.20;;
22565;SDS011;11449;51.330;19.378;2023-12-07T09:58:50;1003.00;;;925.30;;
22565;SDS011;11449;51.330;19.378;2023-12-07T10:09:39;1040.20;;;954.10;;
22565;SDS011;11449;51.330;19.378;2023-12-07T10:14:45;1026.60;;;945.50;;
22565;SDS011;11449;51.330;19.378;2023-12-07T10:20:08;1020.70;;;939.90;;
22565;SDS011;11449;51.330;19.378;2023-12-07T10:25:16;1022.10;;;942.10;;
22565;SDS011;11449;51.330;19.378;2023-12-07T10:30:23;1014.90;;;934.50;;
22565;SDS011;11449;51.330;19.378;2023-12-07T10:35:33;1025.80;;;942.10;;
22565;SDS011;11449;51.330;19.378;2023-12-07T10:40:40;1028.40;;;943.80;;
22565;SDS011;11449;51.330;19.378;2023-12-07T10:45:44;1022.70;;;938.10;;
22565;SDS011;11449;51.330;19.378;2023-12-07T10:50:52;1026.40;;;943.90;;
22565;SDS011;11449;51.330;19.378;2023-12-07T10:56:01;1032.00;;;950.30;;
22565;SDS011;11449;51.330;19.378;2023-12-07T11:01:09;1034.40;;;952.80;;
22565;SDS011;11449;51.330;19.378;2023-12-07T11:06:17;1035.30;;;953.00;;
22565;SDS011;11449;51.330;19.378;2023-12-07T11:11:43;1034.50;;;948.80;;
22565;SDS011;11449;51.330;19.378;2023-12-07T11:16:52;1029.30;;;946.70;;
22565;SDS011;11449;51.330;19.378;2023-12-07T11:21:55;1035.00;;;951.90;;
22565;SDS011;11449;51.330;19.378;2023-12-07T11:27:03;1025.20;;;942.70;;
22565;SDS011;11449;51.330;19.378;2023-12-07T11:32:11;1022.10;;;939.80;;
22565;SDS011;11449;51.330;19.378;2023-12-07T11:37:15;1016.90;;;936.10;;
22565;SDS011;11449;51.330;19.378;2023-12-07T11:42:26;1030.50;;;946.50;;
22565;SDS011;11449;51.330;19.378;2023-12-07T11:47:34;1051.10;;;964.90;;
22565;SDS011;11449;51.330;19.378;2023-12-07T11:52:42;1038.70;;;951.70;;
22565;SDS011;11449;51.330;19.378;2023-12-07T11:57:50;1038.50;;;955.50;;
22565;SDS011;11449;51.330;19.378;2023-12-07T12:15:16;360.90;;;183.20;;
22565;SDS011;11449;51.330;19.378;2023-12-07T12:20:19;1055.10;;;968.90;;
22565;SDS011;11449;51.330;19.378;2023-12-07T12:25:29;1040.70;;;954.30;;
22565;SDS011;11449;51.330;19.378;2023-12-07T12:30:38;1048.60;;;961.10;;
22565;SDS011;11449;51.330;19.378;2023-12-07T12:35:45;1047.60;;;962.60;;
22565;SDS011;11449;51.330;19.378;2023-12-07T12:40:48;1064.40;;;977.70;;
22565;SDS011;11449;51.330;19.378;2023-12-07T12:45:53;1061.30;;;975.10;;
22565;SDS011;11449;51.330;19.378;2023-12-07T12:51:07;1040.20;;;956.20;;
22565;SDS011;11449;51.330;19.378;2023-12-07T12:56:15;1052.50;;;965.50;;
22565;SDS011;11449;51.330;19.378;2023-12-07T13:01:19;1053.70;;;968.30;;
22565;SDS011;11449;51.330;19.378;2023-12-07T13:06:28;1059.60;;;972.30;;
22565;SDS011;11449;51.330;19.378;2023-12-07T13:11:31;1053.40;;;966.40;;
22565;SDS011;11449;51.330;19.378;2023-12-07T13:16:39;1051.60;;;963.40;;
22565;SDS011;11449;51.330;19.378;2023-12-07T13:21:46;1053.30;;;967.70;;
22565;SDS011;11449;51.330;19.378;2023-12-07T13:26:51;1057.80;;;971.70;;
22565;SDS011;11449;51.330;19.378;2023-12-07T13:31:59;1048.20;;;961.90;;
22565;SDS011;11449;51.330;19.378;2023-12-07T13:37:06;1063.40;;;976.10;;
22565;SDS011;11449;51.330;19.378;2023-12-07T13:42:14;1065.20;;;979.60;;
22565;SDS011;11449;51.330;19.378;2023-12-07T13:47:22;1055.60;;;968.50;;
22565;SDS011;11449;51.330;19.378;2023-12-07T13:52:28;1070.40;;;982.10;;
22565;SDS011;11449;51.330;19.378;2023-12-07T13:57:31;1067.60;;;980.30;;
22565;SDS011;11449;51.330;19.378;2023-12-07T14:02:39;1061.20;;;973.40;;
22565;SDS011;11449;51.330;19.378;2023-12-07T14:07:49;1069.40;;;982.00;;
22565;SDS011;11449;51.330;19.378;2023-12-07T14:12:52;1059.60;;;975.10;;
22565;SDS011;11449;51.330;19.378;2023-12-07T14:18:00;1071.60;;;985.20;;
22565;SDS011;11449;51.330;19.378;2023-12-07T14:23:09;1074.00;;;986.30;;
22565;SDS011;11449;51.330;19.378;2023-12-07T14:28:17;1068.00;;;981.50;;
22565;SDS011;11449;51.330;19.378;2023-12-07T14:33:22;1075.10;;;985.60;;
22565;SDS011;11449;51.330;19.378;2023-12-07T14:38:29;1079.20;;;988.90;;
22565;SDS011;11449;51.330;19.378;2023-12-07T14:43:38;1073.30;;;981.10;;
22565;SDS011;11449;51.330;19.378;2023-12-07T14:48:46;1072.90;;;984.00;;
22565;SDS011;11449;51.330;19.378;2023-12-07T14:53:54;1073.70;;;986.60;;
22565;SDS011;11449;51.330;19.378;2023-12-07T14:58:57;1067.30;;;980.70;;
22565;SDS011;11449;51.330;19.378;2023-12-07T15:04:06;1092.30;;;992.80;;
22565;SDS011;11449;51.330;19.378;2023-12-07T15:09:14;1073.50;;;986.20;;
22565;SDS011;11449;51.330;19.378;2023-12-07T15:14:22;1070.20;;;983.80;;
22565;SDS011;11449;51.330;19.378;2023-12-07T15:19:30;1072.00;;;983.90;;
22565;SDS011;11449;51.330;19.378;2023-12-07T15:24:34;1067.00;;;978.10;;
22565;SDS011;11449;51.330;19.378;2023-12-07T15:29:43;1066.60;;;975.40;;
22565;SDS011;11449;51.330;19.378;2023-12-07T15:34:51;1063.40;;;977.60;;
22565;SDS011;11449;51.330;19.378;2023-12-07T15:39:59;1027.80;;;946.00;;
22565;SDS011;11449;51.330;19.378;2023-12-07T15:45:07;1047.70;;;965.20;;
22565;SDS011;11449;51.330;19.378;2023-12-07T15:50:15;1022.40;;;941.80;;
22565;SDS011;11449;51.330;19.378;2023-12-07T15:55:23;1050.30;;;965.00;;
22565;SDS011;11449;51.330;19.378;2023-12-07T16:00:31;1051.70;;;965.30;;
22565;SDS011;11449;51.330;19.378;2023-12-07T16:05:38;1049.60;;;962.00;;
22565;SDS011;11449;51.330;19.378;2023-12-07T16:10:46;1046.90;;;961.10;;
22565;SDS011;11449;51.330;19.378;2023-12-07T16:15:49;1038.50;;;954.70;;
22565;SDS011;11449;51.330;19.378;2023-12-07T16:21:01;1042.60;;;957.50;;
22565;SDS011;11449;51.330;19.378;2023-12-07T16:26:04;1075.60;;;989.00;;
22565;SDS011;11449;51.330;19.378;2023-12-07T16:31:12;1066.30;;;979.20;;
22565;SDS011;11449;51.330;19.378;2023-12-07T16:36:20;1068.50;;;980.50;;
22565;SDS011;11449;51.330;19.378;2023-12-07T16:41:23;1066.10;;;978.30;;
22565;SDS011;11449;51.330;19.378;2023-12-07T16:46:31;1074.80;;;986.00;;
22565;SDS011;11449;51.330;19.378;2023-12-07T16:51:34;1060.20;;;970.70;;
22565;SDS011;11449;51.330;19.378;2023-12-07T16:56:42;1058.70;;;969.80;;
22565;SDS011;11449;51.330;19.378;2023-12-07T17:01:45;1063.90;;;975.40;;
22565;SDS011;11449;51.330;19.378;2023-12-07T17:06:49;1061.80;;;975.00;;
22565;SDS011;11449;51.330;19.378;2023-12-07T17:11:57;1062.00;;;975.40;;
22565;SDS011;11449;51.330;19.378;2023-12-07T17:17:05;1059.90;;;973.20;;
22565;SDS011;11449;51.330;19.378;2023-12-07T17:22:09;1075.20;;;987.10;;
22565;SDS011;11449;51.330;19.378;2023-12-07T17:27:17;1094.60;;;999.90;;
22565;SDS011;11449;51.330;19.378;2023-12-07T17:32:25;1087.60;;;994.50;;
22565;SDS011;11449;51.330;19.378;2023-12-07T17:37:33;1070.00;;;978.60;;
22565;SDS011;11449;51.330;19.378;2023-12-07T17:42:40;1069.60;;;979.10;;
22565;SDS011;11449;51.330;19.378;2023-12-07T17:47:48;1066.90;;;976.00;;
22565;SDS011;11449;51.330;19.378;2023-12-07T17:52:51;1079.20;;;989.20;;
22565;SDS011;11449;51.330;19.378;2023-12-07T17:57:59;1063.30;;;976.60;;
22565;SDS011;11449;51.330;19.378;2023-12-07T18:03:07;1077.60;;;987.00;;
22565;SDS011;11449;51.330;19.378;2023-12-07T18:08:15;1064.20;;;975.40;;
22565;SDS011;11449;51.330;19.378;2023-12-07T18:13:22;1072.90;;;984.10;;
22565;SDS011;11449;51.330;19.378;2023-12-07T18:18:30;1121.10;;;999.90;;
22565;SDS011;11449;51.330;19.378;2023-12-07T18:23:38;1090.80;;;995.00;;
22565;SDS011;11449;51.330;19.378;2023-12-07T18:28:46;1095.70;;;996.90;;
22565;SDS011;11449;51.330;19.378;2023-12-07T18:33:54;1080.70;;;986.20;;
22565;SDS011;11449;51.330;19.378;2023-12-07T18:39:02;1091.90;;;996.30;;
22565;SDS011;11449;51.330;19.378;2023-12-07T18:44:04;1100.70;;;997.20;;
22565;SDS011;11449;51.330;19.378;2023-12-07T18:49:12;1092.30;;;995.90;;
22565;SDS011;11449;51.330;19.378;2023-12-07T18:54:20;1078.00;;;985.50;;
22565;SDS011;11449;51.330;19.378;2023-12-07T18:59:23;1087.50;;;993.10;;
22565;SDS011;11449;51.330;19.378;2023-12-07T19:04:32;1093.50;;;995.60;;
22565;SDS011;11449;51.330;19.378;2023-12-07T19:09:39;1097.00;;;995.20;;
22565;SDS011;11449;51.330;19.378;2023-12-07T19:14:47;1085.00;;;989.30;;
22565;SDS011;11449;51.330;19.378;2023-12-07T19:19:54;1085.10;;;987.70;;
22565;SDS011;11449;51.330;19.378;2023-12-07T19:24:59;1082.80;;;988.20;;
22565;SDS011;11449;51.330;19.378;2023-12-07T19:30:08;1086.00;;;993.20;;
22565;SDS011;11449;51.330;19.378;2023-12-07T19:35:16;1074.00;;;982.70;;
22565;SDS011;11449;51.330;19.378;2023-12-07T19:40:23;1084.50;;;992.30;;
22565;SDS011;11449;51.330;19.378;2023-12-07T19:45:31;1101.60;;;999.70;;
22565;SDS011;11449;51.330;19.378;2023-12-07T19:55:49;1079.40;;;986.60;;
22565;SDS011;11449;51.330;19.378;2023-12-07T20:00:53;1088.90;;;995.80;;
22565;SDS011;11449;51.330;19.378;2023-12-07T20:05:56;1082.30;;;991.00;;
22565;SDS011;11449;51.330;19.378;2023-12-07T20:11:04;1074.80;;;985.70;;
22565;SDS011;11449;51.330;19.378;2023-12-07T20:16:18;1076.50;;;984.40;;
22565;SDS011;11449;51.330;19.378;2023-12-07T20:21:27;1083.80;;;990.90;;
22565;SDS011;11449;51.330;19.378;2023-12-07T20:26:35;1087.40;;;993.60;;
22565;SDS011;11449;51.330;19.378;2023-12-07T20:31:42;1085.40;;;991.00;;
22565;SDS011;11449;51.330;19.378;2023-12-07T20:36:50;1070.90;;;979.20;;
22565;SDS011;11449;51.330;19.378;2023-12-07T20:41:57;1069.00;;;978.00;;
22565;SDS011;11449;51.330;19.378;2023-12-07T20:47:05;1078.80;;;988.30;;
22565;SDS011;11449;51.330;19.378;2023-12-07T20:52:13;1075.70;;;983.20;;
22565;SDS011;11449;51.330;19.378;2023-12-07T20:57:21;1082.80;;;991.90;;
22565;SDS011;11449;51.330;19.378;2023-12-07T21:02:24;1069.30;;;978.90;;
22565;SDS011;11449;51.330;19.378;2023-12-07T21:07:32;1078.50;;;986.10;;
22565;SDS011;11449;51.330;19.378;2023-12-07T21:12:40;1072.10;;;979.00;;
22565;SDS011;11449;51.330;19.378;2023-12-07T21:17:44;1079.00;;;985.70;;
22565;SDS011;11449;51.330;19.378;2023-12-07T21:22:52;1080.90;;;989.50;;
22565;SDS011;11449;51.330;19.378;2023-12-07T21:27:54;1076.00;;;983.30;;
22565;SDS011;11449;51.330;19.378;2023-12-07T21:33:03;1078.30;;;986.10;;
22565;SDS011;11449;51.330;19.378;2023-12-07T21:38:11;1071.20;;;981.40;;
22565;SDS011;11449;51.330;19.378;2023-12-07T21:43:19;1087.60;;;994.50;;
22565;SDS011;11449;51.330;19.378;2023-12-07T21:48:27;1081.30;;;985.40;;
22565;SDS011;11449;51.330;19.378;2023-12-07T21:53:34;1078.40;;;985.10;;
22565;SDS011;11449;51.330;19.378;2023-12-07T21:58:42;1079.40;;;988.70;;
22565;SDS011;11449;51.330;19.378;2023-12-07T22:03:50;1084.80;;;992.10;;
22565;SDS011;11449;51.330;19.378;2023-12-07T22:08:53;1077.30;;;986.20;;
22565;SDS011;11449;51.330;19.378;2023-12-07T22:14:01;1099.30;;;998.90;;
22565;SDS011;11449;51.330;19.378;2023-12-07T22:19:09;1087.20;;;994.40;;
22565;SDS011;11449;51.330;19.378;2023-12-07T22:24:19;1081.60;;;986.80;;
22565;SDS011;11449;51.330;19.378;2023-12-07T22:29:26;1092.40;;;996.20;;
22565;SDS011;11449;51.330;19.378;2023-12-07T22:34:29;1071.10;;;978.70;;
22565;SDS011;11449;51.330;19.378;2023-12-07T22:39:37;1069.90;;;977.50;;
22565;SDS011;11449;51.330;19.378;2023-12-07T22:44:40;1055.50;;;966.90;;
22565;SDS011;11449;51.330;19.378;2023-12-07T22:49:44;1058.10;;;963.60;;
22565;SDS011;11449;51.330;19.378;2023-12-07T22:54:51;1061.00;;;972.20;;
22565;SDS011;11449;51.330;19.378;2023-12-07T23:00:00;1064.80;;;974.20;;
22565;SDS011;11449;51.330;19.378;2023-12-07T23:05:08;1058.20;;;969.30;;
22565;SDS011;11449;51.330;19.378;2023-12-07T23:10:17;1052.70;;;963.80;;
22565;SDS011;11449;51.330;19.378;2023-12-07T23:15:20;1065.60;;;975.50;;
22565;SDS011;11449;51.330;19.378;2023-12-07T23:20:27;1048.20;;;956.90;;
22565;SDS011;11449;51.330;19.378;2023-12-07T23:25:35;1066.20;;;975.50;;
22565;SDS011;11449;51.330;19.378;2023-12-07T23:30:43;1066.10;;;975.30;;
22565;SDS011;11449;51.330;19.378;2023-12-07T23:35:51;1065.40;;;974.50;;
22565;SDS011;11449;51.330;19.378;2023-12-07T23:40:58;1063.00;;;971.80;;
22565;SDS011;11449;51.330;19.378;2023-12-07T23:46:08;1072.60;;;980.20;;
22565;SDS011;11449;51.330;19.378;2023-12-07T23:51:12;1057.50;;;968.20;;
22565;SDS011;11449;51.330;19.378;2023-12-07T23:56:19;1071.30;;;979.30;;
